createdAt,value
2019-01-25T00:01:30.705Z,99172.56
2019-01-25T00:04:01.638Z,99167.55
2019-01-25T00:06:32.514Z,99171.40
2019-01-25T00:09:04.525Z,99166.20
2019-01-25T00:11:35.596Z,99173.09
2019-01-25T00:14:06.976Z,99181.98
2019-01-25T00:16:37.915Z,99182.13
2019-01-25T00:19:08.976Z,99182.82
2019-01-25T00:21:39.756Z,99180.98
2019-01-25T00:24:11.776Z,99190.24
2019-01-25T00:26:42.556Z,99185.30
2019-01-25T00:29:13.640Z,99181.30
2019-01-25T00:31:44.628Z,99190.18
2019-01-25T00:34:15.463Z,99190.28
2019-01-25T00:36:46.236Z,99201.02
2019-01-25T00:39:17.304Z,99205.52
2019-01-25T00:41:48.186Z,99197.27
2019-01-25T00:44:19.188Z,99204.56
2019-01-25T00:46:50.101Z,99204.77
2019-01-25T00:49:21.364Z,99199.33
2019-01-25T00:51:52.240Z,99209.75
2019-01-25T00:54:23.145Z,99207.63
2019-01-25T00:56:54.012Z,99209.95
2019-01-25T00:59:24.941Z,99209.52
2019-01-25T01:01:55.829Z,99213.63
2019-01-25T01:04:26.788Z,99212.16
2019-01-25T01:06:57.703Z,99216.17
2019-01-25T01:09:28.651Z,99211.42
2019-01-25T01:11:59.580Z,99219.20
2019-01-25T01:14:30.562Z,99221.48
2019-01-25T01:17:01.383Z,99221.94
2019-01-25T01:19:32.215Z,99217.77
2019-01-25T01:22:03.200Z,99215.73
2019-01-25T01:24:34.130Z,99223.24
2019-01-25T01:27:05.022Z,99218.70
2019-01-25T01:29:35.897Z,99216.52
2019-01-25T01:32:06.751Z,99214.00
2019-01-25T01:34:37.536Z,99213.72
2019-01-25T01:37:08.427Z,99215.73
2019-01-25T01:39:39.533Z,99215.05
2019-01-25T01:42:10.438Z,99221.92
2019-01-25T01:44:41.294Z,99225.55
2019-01-25T01:47:12.075Z,99222.13
2019-01-25T01:49:42.895Z,99219.34
2019-01-25T01:52:13.785Z,99220.66
2019-01-25T01:54:45.537Z,99211.80
2019-01-25T01:57:16.381Z,99207.02
2019-01-25T01:59:47.369Z,99200.89
2019-01-25T02:02:18.326Z,99200.56
2019-01-25T02:04:49.492Z,99201.43
2019-01-25T02:07:20.444Z,99207.78
2019-01-25T02:09:51.416Z,99198.05
2019-01-25T02:12:22.212Z,99202.34
2019-01-25T02:14:53.188Z,99211.50
2019-01-25T02:17:24.908Z,99211.80
2019-01-25T02:19:55.952Z,99211.04
2019-01-25T02:22:26.849Z,99215.48
2019-01-25T02:24:57.666Z,99221.00
2019-01-25T02:27:28.438Z,99221.74
2019-01-25T02:29:59.215Z,99213.66
2019-01-25T02:32:30.032Z,99215.72
2019-01-25T02:35:01.026Z,99217.22
2019-01-25T02:37:31.884Z,99215.77
2019-01-25T02:40:02.766Z,99213.94
2019-01-25T02:42:33.554Z,99217.88
2019-01-25T02:45:04.737Z,99218.90
2019-01-25T02:47:35.660Z,99211.45
2019-01-25T02:50:08.480Z,99208.53
2019-01-25T02:52:39.350Z,99203.56
2019-01-25T02:55:11.077Z,99216.48
2019-01-25T02:57:41.840Z,99216.63
2019-01-25T03:00:18.565Z,99223.45
2019-01-25T03:02:49.450Z,99221.39
2019-01-25T03:05:21.049Z,99208.17
2019-01-25T03:07:52.186Z,99191.67
2019-01-25T03:10:28.542Z,99201.81
2019-01-25T03:12:56.020Z,99209.80
2019-01-25T03:15:27.699Z,99200.72
2019-01-25T03:17:58.470Z,99208.91
2019-01-25T03:20:29.356Z,99205.90
2019-01-25T03:23:00.153Z,99198.44
2019-01-25T03:25:31.120Z,99194.90
2019-01-25T03:28:02.045Z,99201.34
2019-01-25T03:30:33.077Z,99202.13
2019-01-25T03:33:03.896Z,99200.59
2019-01-25T03:35:34.793Z,99211.06
2019-01-25T03:38:06.382Z,99212.09
2019-01-25T03:40:37.553Z,99224.83
2019-01-25T03:43:08.366Z,99224.73
2019-01-25T03:45:39.324Z,99221.73
2019-01-25T03:48:10.181Z,99218.98
2019-01-25T03:50:41.162Z,99205.92
2019-01-25T03:53:11.911Z,99210.27
2019-01-25T03:55:42.801Z,99215.73
2019-01-25T03:58:13.581Z,99224.13
2019-01-25T04:00:44.786Z,99218.55
2019-01-25T04:03:15.700Z,99228.85
2019-01-25T04:05:46.689Z,99239.12
2019-01-25T04:08:17.555Z,99244.17
2019-01-25T04:10:48.630Z,99243.18
2019-01-25T04:13:19.557Z,99237.20
2019-01-25T04:15:50.694Z,99237.73
2019-01-25T04:18:21.714Z,99230.35
2019-01-25T04:20:52.594Z,99232.05
2019-01-25T04:23:23.524Z,99228.97
2019-01-25T04:25:54.423Z,99237.05
2019-01-25T04:28:25.193Z,99248.41
2019-01-25T04:30:56.159Z,99246.19
2019-01-25T04:33:26.939Z,99248.26
2019-01-25T04:35:57.819Z,99253.39
2019-01-25T04:38:28.708Z,99247.20
2019-01-25T04:40:59.523Z,99253.24
2019-01-25T04:43:30.319Z,99265.20
2019-01-25T04:46:01.266Z,99261.53
2019-01-25T04:48:32.058Z,99263.72
2019-01-25T04:51:09.387Z,99248.34
2019-01-25T04:53:40.307Z,99239.79
2019-01-25T04:56:11.434Z,99246.24
2019-01-25T04:58:42.157Z,99241.86
2019-01-25T05:01:13.118Z,99235.88
2019-01-25T05:03:44.105Z,99232.80
2019-01-25T05:06:18.132Z,99242.28
2019-01-25T05:08:49.013Z,99250.41
2019-01-25T05:11:20.508Z,99247.38
2019-01-25T05:13:51.187Z,99248.62
2019-01-25T05:16:22.085Z,99253.78
2019-01-25T05:18:52.872Z,99253.27
2019-01-25T05:21:25.247Z,99255.02
2019-01-25T05:23:56.152Z,99253.18
2019-01-25T05:26:27.192Z,99253.09
2019-01-25T05:28:58.061Z,99262.61
2019-01-25T05:31:29.998Z,99262.61
2019-01-25T05:34:00.727Z,99266.63
2019-01-25T05:36:32.709Z,99273.24
2019-01-25T05:39:04.658Z,99266.75
2019-01-25T05:41:35.526Z,99270.30
2019-01-25T05:44:06.426Z,99267.84
2019-01-25T05:46:37.309Z,99269.91
2019-01-25T05:49:08.129Z,99272.04
2019-01-25T05:51:38.982Z,99270.42
2019-01-25T05:54:10.004Z,99274.14
2019-01-25T05:56:44.321Z,99270.00
2019-01-25T05:59:16.564Z,99275.19
2019-01-25T06:01:47.341Z,99281.20
2019-01-25T06:04:18.172Z,99283.45
2019-01-25T06:06:49.903Z,99291.38
2019-01-25T06:09:23.693Z,99292.70
2019-01-25T06:11:54.559Z,99296.88
2019-01-25T06:14:25.417Z,99294.92
2019-01-25T06:16:56.401Z,99302.16
2019-01-25T06:19:27.282Z,99302.02
2019-01-25T06:21:58.429Z,99300.39
2019-01-25T06:24:29.229Z,99302.58
2019-01-25T06:27:00.105Z,99298.44
2019-01-25T06:29:33.991Z,99300.93
2019-01-25T06:32:05.343Z,99307.17
2019-01-25T06:34:36.086Z,99313.42
2019-01-25T06:37:07.124Z,99314.66
2019-01-25T06:39:37.926Z,99317.16
2019-01-25T06:42:08.809Z,99318.56
2019-01-25T06:44:39.912Z,99318.89
2019-01-25T06:47:10.828Z,99322.80
2019-01-25T06:49:41.614Z,99333.94
2019-01-25T06:52:12.561Z,99329.64
2019-01-25T06:54:43.362Z,99333.42
2019-01-25T06:57:33.038Z,99336.17
2019-01-25T07:00:03.982Z,99331.65
2019-01-25T07:02:37.728Z,99337.92
2019-01-25T07:05:09.433Z,99335.55
2019-01-25T07:07:42.193Z,99343.78
2019-01-25T07:10:16.054Z,99344.25
2019-01-25T07:12:48.150Z,99350.67
2019-01-25T07:15:22.441Z,99358.24
2019-01-25T07:17:54.114Z,99351.91
2019-01-25T07:20:27.247Z,99359.88
2019-01-25T07:22:58.446Z,99364.52
2019-01-25T07:25:29.333Z,99367.55
2019-01-25T07:28:00.188Z,99372.98
2019-01-25T07:30:31.008Z,99375.17
2019-01-25T07:33:02.014Z,99378.53
2019-01-25T07:35:32.833Z,99384.89
2019-01-25T07:38:04.490Z,99382.08
2019-01-25T07:40:35.417Z,99381.59
2019-01-25T07:43:06.499Z,99383.87
2019-01-25T07:45:37.282Z,99395.00
2019-01-25T07:48:08.181Z,99399.33
2019-01-25T07:50:38.946Z,99406.87
2019-01-25T07:53:09.742Z,99400.96
2019-01-25T07:55:40.685Z,99415.20
2019-01-25T07:58:11.497Z,99407.20
2019-01-25T08:00:42.464Z,99411.41
2019-01-25T08:03:13.364Z,99404.63
2019-01-25T08:05:44.151Z,99407.84
2019-01-25T08:08:15.061Z,99413.04
2019-01-25T08:10:45.880Z,99414.94
2019-01-25T08:13:17.255Z,99418.06
2019-01-25T08:15:48.162Z,99412.61
2019-01-25T08:18:19.191Z,99421.50
2019-01-25T08:20:50.123Z,99419.91
2019-01-25T08:23:21.549Z,99421.39
2019-01-25T08:25:52.383Z,99428.47
2019-01-25T08:28:23.362Z,99426.94
2019-01-25T08:30:54.201Z,99423.20
2019-01-25T08:33:25.255Z,99426.29
2019-01-25T08:35:56.036Z,99430.34
2019-01-25T08:38:26.948Z,99428.09
2019-01-25T08:40:57.596Z,99425.52
2019-01-25T08:43:28.450Z,99426.16
2019-01-25T08:45:59.312Z,99423.83
2019-01-25T08:48:30.321Z,99426.02
2019-01-25T08:51:01.351Z,99426.20
2019-01-25T08:53:32.132Z,99423.10
2019-01-25T08:56:03.052Z,99437.25
2019-01-25T08:58:35.821Z,99432.81
2019-01-25T09:01:06.959Z,99437.39
2019-01-25T09:03:38.005Z,99435.67
2019-01-25T09:06:08.828Z,99435.67
2019-01-25T09:08:39.817Z,99437.91
2019-01-25T09:11:10.744Z,99437.54
2019-01-25T09:13:41.510Z,99444.52
2019-01-25T09:16:12.415Z,99442.23
2019-01-25T09:18:43.354Z,99447.55
2019-01-25T09:21:14.153Z,99441.79
2019-01-25T09:23:45.034Z,99450.42
2019-01-25T09:26:15.968Z,99447.47
2019-01-25T09:28:46.927Z,99447.66
2019-01-25T09:31:17.843Z,99442.08
2019-01-25T09:33:49.070Z,99450.34
2019-01-25T09:36:19.886Z,99441.97
2019-01-25T09:38:50.761Z,99448.91
2019-01-25T09:41:21.693Z,99451.39
2019-01-25T09:43:52.652Z,99454.58
2019-01-25T09:46:23.569Z,99460.13
2019-01-25T09:48:54.415Z,99462.65
2019-01-25T09:51:25.318Z,99469.12
2019-01-25T09:53:56.191Z,99476.42
2019-01-25T09:56:27.081Z,99478.95
2019-01-25T09:58:58.599Z,99479.33
2019-01-25T10:01:29.478Z,99480.17
2019-01-25T10:04:00.252Z,99475.20
2019-01-25T10:06:31.143Z,99464.34
2019-01-25T10:09:02.412Z,99465.56
2019-01-25T10:11:34.494Z,99464.19
2019-01-25T10:14:05.453Z,99465.36
2019-01-25T10:16:36.252Z,99469.55
2019-01-25T10:19:07.011Z,99460.86
2019-01-25T10:21:37.844Z,99461.55
2019-01-25T10:24:08.680Z,99473.89
2019-01-25T10:26:39.576Z,99475.53
2019-01-25T10:29:10.465Z,99470.96
2019-01-25T10:31:41.289Z,99472.39
2019-01-25T10:34:12.370Z,99479.19
2019-01-25T10:36:43.309Z,99469.86
2019-01-25T10:39:14.304Z,99475.52
2019-01-25T10:41:45.007Z,99475.73
2019-01-25T10:44:15.881Z,99483.00
2019-01-25T10:46:46.778Z,99482.70
2019-01-25T10:49:17.781Z,99480.66
2019-01-25T10:51:48.484Z,99470.91
2019-01-25T10:54:19.660Z,99471.47
2019-01-25T10:56:50.540Z,99478.09
2019-01-25T10:59:21.492Z,99468.33
2019-01-25T11:01:52.320Z,99464.28
2019-01-25T11:04:23.088Z,99467.28
2019-01-25T11:06:54.015Z,99469.25
2019-01-25T11:09:25.007Z,99471.95
2019-01-25T11:11:55.765Z,99471.27
2019-01-25T11:14:26.954Z,99466.81
2019-01-25T11:16:57.882Z,99462.79
2019-01-25T11:19:28.902Z,99454.88
2019-01-25T11:21:59.647Z,99449.84
2019-01-25T11:24:30.683Z,99452.98
2019-01-25T11:27:01.498Z,99449.49
2019-01-25T11:29:32.374Z,99445.11
2019-01-25T11:32:03.309Z,99440.52
2019-01-25T11:34:34.193Z,99437.70
2019-01-25T11:37:05.240Z,99434.12
2019-01-25T11:39:36.192Z,99430.56
2019-01-25T11:42:07.059Z,99437.58
2019-01-25T11:44:38.361Z,99433.53
2019-01-25T11:47:09.240Z,99432.18
2019-01-25T11:49:40.236Z,99429.78
2019-01-25T11:52:11.080Z,99421.37
2019-01-25T11:54:41.880Z,99423.77
2019-01-25T11:57:12.761Z,99420.89
2019-01-25T11:59:43.577Z,99422.57
2019-01-25T12:02:20.737Z,99423.95
2019-01-25T12:04:47.046Z,99426.18
2019-01-25T12:07:17.840Z,99434.50
2019-01-25T12:09:49.856Z,99430.08
2019-01-25T12:12:20.748Z,99434.09
2019-01-25T12:14:51.505Z,99433.44
2019-01-25T12:17:22.317Z,99427.67
2019-01-25T12:19:53.419Z,99430.98
2019-01-25T12:22:25.346Z,99437.50
2019-01-25T12:24:56.185Z,99441.14
2019-01-25T12:27:26.918Z,99433.66
2019-01-25T12:29:58.940Z,99431.31
2019-01-25T12:32:29.826Z,99437.48
2019-01-25T12:35:01.823Z,99425.55
2019-01-25T12:37:34.438Z,99422.45
2019-01-25T12:40:06.481Z,99422.98
2019-01-25T12:42:37.371Z,99426.23
2019-01-25T12:45:10.400Z,99433.58
2019-01-25T12:47:41.260Z,99430.94
2019-01-25T12:50:16.029Z,99434.06
2019-01-25T12:52:47.067Z,99435.77
2019-01-25T12:55:18.340Z,99439.78
2019-01-25T12:57:49.110Z,99431.81
2019-01-25T13:00:23.698Z,99437.98
2019-01-25T13:02:54.906Z,99437.80
2019-01-25T13:05:25.951Z,99431.46
2019-01-25T13:07:56.857Z,99433.98
2019-01-25T13:10:28.294Z,99437.33
2019-01-25T13:12:59.177Z,99434.97
2019-01-25T13:15:30.108Z,99438.98
2019-01-25T13:18:00.916Z,99438.98
2019-01-25T13:20:31.879Z,99445.31
2019-01-25T13:23:02.731Z,99437.02
2019-01-25T13:25:33.690Z,99440.45
2019-01-25T13:28:04.767Z,99434.64
2019-01-25T13:30:35.651Z,99440.65
2019-01-25T13:33:06.761Z,99448.31
2019-01-25T13:35:37.746Z,99441.67
2019-01-25T13:38:08.626Z,99440.29
2019-01-25T13:40:39.515Z,99444.94
2019-01-25T13:43:10.407Z,99436.00
2019-01-25T13:45:41.605Z,99431.02
2019-01-25T13:48:12.485Z,99436.65
2019-01-25T13:50:43.364Z,99435.02
2019-01-25T13:53:15.216Z,99435.37
2019-01-25T13:55:46.151Z,99436.86
2019-01-25T13:58:16.868Z,99428.87
2019-01-25T14:00:47.738Z,99430.88
2019-01-25T14:03:18.527Z,99429.70
2019-01-25T14:05:49.386Z,99424.38
2019-01-25T14:08:20.094Z,99414.41
2019-01-25T14:10:51.813Z,99411.23
2019-01-25T14:13:22.697Z,99410.41
2019-01-25T14:15:53.559Z,99401.45
2019-01-25T14:18:24.509Z,99406.61
2019-01-25T14:20:55.391Z,99404.44
2019-01-25T14:23:26.451Z,99402.45
2019-01-25T14:25:57.319Z,99404.45
2019-01-25T14:28:28.125Z,99406.11
2019-01-25T14:30:59.291Z,99416.73
2019-01-25T14:33:30.036Z,99410.10
2019-01-25T14:36:01.102Z,99411.91
2019-01-25T14:38:32.007Z,99412.09
2019-01-25T14:41:02.791Z,99406.78
2019-01-25T14:43:33.588Z,99408.59
2019-01-25T14:46:04.424Z,99405.42
2019-01-25T14:48:38.170Z,99414.87
2019-01-25T14:51:07.872Z,99413.57
2019-01-25T14:53:38.668Z,99427.34
2019-01-25T14:56:09.560Z,99433.49
2019-01-25T14:58:40.340Z,99437.63
2019-01-25T15:01:11.433Z,99450.09
2019-01-25T15:03:42.346Z,99460.56
2019-01-25T15:06:13.265Z,99466.50
2019-01-25T15:08:44.055Z,99468.83
2019-01-25T15:11:14.971Z,99465.49
2019-01-25T15:13:45.866Z,99457.80
2019-01-25T15:16:16.756Z,99442.16
2019-01-25T15:18:47.511Z,99448.11
2019-01-25T15:21:18.288Z,99446.03
2019-01-25T15:23:49.083Z,99448.74
2019-01-25T15:26:20.079Z,99449.33
2019-01-25T15:28:50.908Z,99455.97
2019-01-25T15:31:21.761Z,99453.47
2019-01-25T15:33:52.632Z,99452.83
2019-01-25T15:36:23.511Z,99461.63
2019-01-25T15:38:54.442Z,99461.14
2019-01-25T15:41:25.415Z,99455.77
2019-01-25T15:43:56.210Z,99452.76
2019-01-25T15:46:27.240Z,99460.88
2019-01-25T15:48:58.051Z,99462.53
2019-01-25T15:51:28.844Z,99459.25
2019-01-25T15:53:59.627Z,99461.42
2019-01-25T15:56:30.752Z,99461.82
2019-01-25T15:59:01.554Z,99459.97
2019-01-25T16:01:32.674Z,99461.08
2019-01-25T16:04:03.485Z,99462.89
2019-01-25T16:06:34.407Z,99469.20
2019-01-25T16:09:07.723Z,99470.89
2019-01-25T16:11:38.909Z,99469.89
2019-01-25T16:14:09.831Z,99461.13
2019-01-25T16:16:40.894Z,99465.59
2019-01-25T16:19:11.678Z,99463.14
2019-01-25T16:21:42.536Z,99458.08
2019-01-25T16:24:13.398Z,99464.17
2019-01-25T16:26:44.514Z,99460.03
2019-01-25T16:29:15.407Z,99464.81
2019-01-25T16:31:48.035Z,99461.16
2019-01-25T16:34:19.050Z,99459.73
2019-01-25T16:36:50.915Z,99461.97
2019-01-25T16:39:21.737Z,99464.98
2019-01-25T16:41:52.679Z,99468.00
2019-01-25T16:44:25.700Z,99471.77
2019-01-25T16:46:56.215Z,99473.30
2019-01-25T16:49:27.033Z,99474.30
2019-01-25T16:51:58.099Z,99480.28
2019-01-25T16:54:30.174Z,99480.98
2019-01-25T16:57:01.332Z,99477.54
2019-01-25T16:59:32.375Z,99462.80
2019-01-25T17:02:03.594Z,99460.63
2019-01-25T17:04:34.538Z,99467.09
2019-01-25T17:07:05.505Z,99461.63
2019-01-25T17:09:36.381Z,99462.64
2019-01-25T17:12:08.306Z,99475.73
2019-01-25T17:14:39.399Z,99469.22
2019-01-25T17:17:10.321Z,99455.70
2019-01-25T17:19:41.065Z,99457.66
2019-01-25T17:22:11.971Z,99464.49
2019-01-25T17:24:42.883Z,99455.23
2019-01-25T17:27:14.111Z,99456.45
2019-01-25T17:29:45.380Z,99446.70
2019-01-25T17:32:16.255Z,99460.00
2019-01-25T17:34:47.028Z,99474.52
2019-01-25T17:37:17.892Z,99478.70
2019-01-25T17:39:48.810Z,99482.26
2019-01-25T17:42:19.658Z,99473.66
2019-01-25T17:44:50.583Z,99477.53
2019-01-25T17:47:21.516Z,99481.14
2019-01-25T17:49:52.229Z,99482.23
2019-01-25T17:52:23.102Z,99489.08
2019-01-25T17:54:54.134Z,99488.06
2019-01-25T17:57:25.192Z,99485.90
2019-01-25T17:59:55.976Z,99482.82
2019-01-25T18:02:26.842Z,99486.21
2019-01-25T18:04:57.655Z,99486.11
2019-01-25T18:07:28.468Z,99489.98
2019-01-25T18:09:59.386Z,99490.31
2019-01-25T18:12:30.320Z,99493.34
2019-01-25T18:15:01.350Z,99495.35
2019-01-25T18:17:33.146Z,99495.71
2019-01-25T18:20:04.563Z,99504.34
2019-01-25T18:22:35.403Z,99502.87
2019-01-25T18:25:07.031Z,99496.50
2019-01-25T18:27:38.084Z,99490.52
2019-01-25T18:30:15.420Z,99483.05
2019-01-25T18:32:46.268Z,99480.83
2019-01-25T18:35:17.048Z,99483.85
2019-01-25T18:37:49.158Z,99490.52
2019-01-25T18:40:20.208Z,99485.70
2019-01-25T18:42:51.199Z,99487.81
2019-01-25T18:45:21.778Z,99488.61
2019-01-25T18:47:53.649Z,99486.06
2019-01-25T18:50:24.484Z,99486.84
2019-01-25T18:52:55.269Z,99491.45
2019-01-25T18:55:26.084Z,99489.34
2019-01-25T18:57:56.961Z,99489.23
2019-01-25T19:00:27.821Z,99491.25
2019-01-25T19:02:58.703Z,99486.81
2019-01-25T19:05:29.597Z,99485.39
2019-01-25T19:08:00.598Z,99491.20
2019-01-25T19:10:31.508Z,99489.34
2019-01-25T19:13:02.607Z,99490.69
2019-01-25T19:15:33.460Z,99491.15
2019-01-25T19:18:04.831Z,99484.15
2019-01-25T19:20:35.546Z,99483.58
2019-01-25T19:23:06.466Z,99472.33
2019-01-25T19:25:37.351Z,99471.01
2019-01-25T19:28:08.302Z,99468.69
2019-01-25T19:30:41.450Z,99464.41
2019-01-25T19:33:14.047Z,99464.50
2019-01-25T19:35:47.660Z,99460.48
2019-01-25T19:38:21.238Z,99458.63
2019-01-25T19:40:52.108Z,99449.88
2019-01-25T19:43:23.288Z,99442.78
2019-01-25T19:45:54.822Z,99436.20
2019-01-25T19:48:26.308Z,99436.11
2019-01-25T19:50:57.177Z,99442.09
2019-01-25T19:53:28.078Z,99442.30
2019-01-25T19:55:59.168Z,99450.30
2019-01-25T19:58:30.384Z,99452.73
2019-01-25T20:01:01.827Z,99448.81
2019-01-25T20:03:32.826Z,99449.30
2019-01-25T20:06:03.951Z,99450.99
2019-01-25T20:08:35.089Z,99454.38
2019-01-25T20:11:06.094Z,99458.04
2019-01-25T20:13:37.285Z,99452.59
2019-01-25T20:16:08.307Z,99457.93
2019-01-25T20:18:39.575Z,99457.49
2019-01-25T20:21:10.504Z,99468.47
2019-01-25T20:23:41.776Z,99468.16
2019-01-25T20:26:13.445Z,99469.16
2019-01-25T20:28:44.291Z,99471.84
2019-01-25T20:31:15.264Z,99461.37
2019-01-25T20:33:47.188Z,99455.73
2019-01-25T20:36:18.433Z,99456.42
2019-01-25T20:38:49.499Z,99453.13
2019-01-25T20:41:20.591Z,99450.13
2019-01-25T20:43:51.505Z,99458.60
2019-01-25T20:46:22.524Z,99462.30
2019-01-25T20:48:53.515Z,99471.61
2019-01-25T20:51:24.439Z,99465.16
2019-01-25T20:53:55.480Z,99472.63
2019-01-25T20:56:26.402Z,99469.48
2019-01-25T20:58:57.599Z,99463.83
2019-01-25T21:01:28.535Z,99462.70
2019-01-25T21:03:59.562Z,99457.08
2019-01-25T21:06:30.452Z,99455.27
2019-01-25T21:09:01.557Z,99448.33
2019-01-25T21:11:38.823Z,99456.80
2019-01-25T21:14:09.677Z,99461.10
2019-01-25T21:16:40.461Z,99451.89
2019-01-25T21:19:11.343Z,99454.55
2019-01-25T21:21:42.229Z,99456.88
2019-01-25T21:24:13.100Z,99457.24
2019-01-25T21:26:44.007Z,99452.13
2019-01-25T21:29:14.762Z,99444.37
2019-01-25T21:31:45.678Z,99441.92
2019-01-25T21:34:16.755Z,99430.14
2019-01-25T21:36:47.627Z,99431.14
2019-01-25T21:39:18.330Z,99423.25
2019-01-25T21:41:49.257Z,99415.97
2019-01-25T21:44:20.842Z,99417.97
2019-01-25T21:46:51.514Z,99422.98
2019-01-25T21:49:22.418Z,99422.33
2019-01-25T21:51:53.268Z,99407.47
2019-01-25T21:54:24.240Z,99420.22
2019-01-25T21:56:55.038Z,99429.56
2019-01-25T21:59:25.991Z,99427.45
2019-01-25T22:01:56.805Z,99430.94
2019-01-25T22:04:27.719Z,99437.13
2019-01-25T22:06:58.589Z,99442.60
2019-01-25T22:09:29.463Z,99439.13
2019-01-25T22:12:00.256Z,99432.84
2019-01-25T22:14:31.332Z,99439.80
2019-01-25T22:17:02.271Z,99433.51
2019-01-25T22:19:33.306Z,99427.55
2019-01-25T22:22:04.304Z,99438.17
2019-01-25T22:24:35.239Z,99442.69
2019-01-25T22:27:06.089Z,99432.08
2019-01-25T22:29:37.006Z,99424.44
2019-01-25T22:32:07.909Z,99432.88
2019-01-25T22:34:39.190Z,99440.55
2019-01-25T22:37:10.051Z,99430.26
2019-01-25T22:39:40.874Z,99404.67
2019-01-25T22:42:11.863Z,99391.06
2019-01-25T22:44:42.633Z,99397.86
2019-01-25T22:47:20.248Z,99403.15
2019-01-25T22:49:46.067Z,99408.52
2019-01-25T22:52:16.946Z,99402.69
2019-01-25T22:54:47.880Z,99412.31
2019-01-25T22:57:18.695Z,99411.97
2019-01-25T22:59:49.565Z,99403.52
2019-01-25T23:02:20.598Z,99400.38
2019-01-25T23:05:32.491Z,99401.55
2019-01-25T23:08:03.335Z,99396.26
2019-01-25T23:10:34.393Z,99392.91
2019-01-25T23:13:05.475Z,99389.43
2019-01-25T23:15:37.399Z,99382.11
2019-01-25T23:18:08.281Z,99389.41
2019-01-25T23:20:39.242Z,99385.94
2019-01-25T23:23:09.994Z,99377.79
2019-01-25T23:25:41.130Z,99366.86
2019-01-25T23:28:11.976Z,99379.14
2019-01-25T23:30:42.918Z,99373.48
2019-01-25T23:33:13.818Z,99374.83
2019-01-25T23:35:45.099Z,99378.30
2019-01-25T23:38:15.897Z,99378.80
2019-01-25T23:40:46.777Z,99387.11
2019-01-25T23:43:17.559Z,99395.08
2019-01-25T23:45:48.444Z,99390.10
2019-01-25T23:48:19.344Z,99382.80
2019-01-25T23:50:50.268Z,99398.09
2019-01-25T23:53:21.226Z,99398.91
2019-01-25T23:55:52.079Z,99400.06
2019-01-25T23:58:22.792Z,99395.73
